createdAt,value
2019-01-16T00:02:19.112Z,2.33
2019-01-16T00:05:06.420Z,2.30
2019-01-16T00:07:54.660Z,2.63
2019-01-16T00:10:41.700Z,1.80
2019-01-16T00:13:29.646Z,3.03
2019-01-16T00:16:09.072Z,2.50
2019-01-16T00:18:53.045Z,2.57
2019-01-16T00:21:41.286Z,2.50
2019-01-16T00:24:32.276Z,2.90
2019-01-16T00:27:20.637Z,2.83
2019-01-16T00:30:24.346Z,2.43
2019-01-16T00:33:03.194Z,3.00
2019-01-16T00:36:06.811Z,2.40
2019-01-16T00:39:06.644Z,2.23
2019-01-16T00:42:07.100Z,2.13
2019-01-16T00:44:57.199Z,2.83
2019-01-16T00:47:44.069Z,2.40
2019-01-16T00:50:44.747Z,2.00
2019-01-16T00:53:29.668Z,2.00
2019-01-16T00:56:09.853Z,2.27
2019-01-16T00:58:57.868Z,2.60
2019-01-16T01:01:40.154Z,2.30
2019-01-16T01:04:31.003Z,2.00
2019-01-16T01:07:16.339Z,2.03
2019-01-16T01:10:04.387Z,2.50
2019-01-16T01:12:55.656Z,2.63
2019-01-16T01:15:41.767Z,2.53
2019-01-16T01:18:22.201Z,1.93
2019-01-16T01:21:09.121Z,2.20
2019-01-16T01:23:56.026Z,2.70
2019-01-16T01:26:42.550Z,2.20
2019-01-16T01:29:31.907Z,2.60
2019-01-16T01:32:26.044Z,2.27
2019-01-16T01:35:13.313Z,2.00
2019-01-16T01:38:00.077Z,2.40
2019-01-16T01:41:03.068Z,2.43
2019-01-16T01:43:49.104Z,2.20
2019-01-16T01:46:39.892Z,2.70
2019-01-16T01:49:34.043Z,2.07
2019-01-16T01:52:34.628Z,2.53
2019-01-16T01:55:22.344Z,3.20
2019-01-16T01:58:01.083Z,2.17
2019-01-16T02:00:53.306Z,1.90
2019-01-16T02:03:40.125Z,2.23
2019-01-16T02:06:40.461Z,2.30
2019-01-16T02:09:24.182Z,1.80
2019-01-16T02:12:21.437Z,2.43
2019-01-16T02:15:05.544Z,3.13
2019-01-16T02:17:52.277Z,2.30
2019-01-16T02:20:37.169Z,2.90
2019-01-16T02:23:24.077Z,2.03
2019-01-16T02:26:08.124Z,1.60
2019-01-16T02:29:14.558Z,2.10
2019-01-16T02:32:02.540Z,2.13
2019-01-16T02:34:50.814Z,2.17
2019-01-16T02:37:37.608Z,2.20
2019-01-16T02:40:20.714Z,2.43
2019-01-16T02:43:18.004Z,1.97
2019-01-16T02:46:12.259Z,3.23
2019-01-16T02:49:00.140Z,2.37
2019-01-16T02:51:46.084Z,2.30
2019-01-16T02:54:39.342Z,2.63
2019-01-16T02:57:27.250Z,2.53
2019-01-16T03:00:17.958Z,2.20
2019-01-16T03:03:12.987Z,2.23
2019-01-16T03:05:59.949Z,2.40
2019-01-16T03:08:36.449Z,2.27
2019-01-16T03:11:27.322Z,2.70
2019-01-16T03:14:09.769Z,2.20
2019-01-16T03:17:06.629Z,2.10
2019-01-16T03:20:03.699Z,2.67
2019-01-16T03:22:50.165Z,2.77
2019-01-16T03:25:36.584Z,2.40
2019-01-16T03:28:17.240Z,2.20
2019-01-16T03:31:17.666Z,2.50
2019-01-16T03:33:54.458Z,4.70
2019-01-16T03:36:41.818Z,2.70
2019-01-16T03:39:32.753Z,2.80
2019-01-16T03:42:18.587Z,2.50
2019-01-16T03:45:02.927Z,2.17
2019-01-16T03:47:59.816Z,2.40
2019-01-16T03:51:00.080Z,2.47
2019-01-16T03:54:06.042Z,2.93
2019-01-16T03:56:53.172Z,2.50
2019-01-16T03:59:53.625Z,2.13
2019-01-16T04:02:35.833Z,2.07
2019-01-16T04:05:23.898Z,2.60
2019-01-16T04:08:11.848Z,2.07
2019-01-16T04:11:06.064Z,2.60
2019-01-16T04:13:59.855Z,2.73
2019-01-16T04:16:46.476Z,2.27
2019-01-16T04:19:33.356Z,2.67
2019-01-16T04:22:20.234Z,2.80
2019-01-16T04:25:07.035Z,2.20
2019-01-16T04:28:07.413Z,2.67
2019-01-16T04:30:58.491Z,2.40
2019-01-16T04:33:46.403Z,2.33
2019-01-16T04:36:26.116Z,2.47
2019-01-16T04:39:20.996Z,2.20
2019-01-16T04:42:07.509Z,2.50
2019-01-16T04:44:48.676Z,2.37
2019-01-16T04:47:30.583Z,3.27
2019-01-16T04:50:12.260Z,3.17
2019-01-16T04:53:18.653Z,3.33
2019-01-16T04:56:05.145Z,3.83
2019-01-16T04:59:05.643Z,3.90
2019-01-16T05:02:09.679Z,3.30
2019-01-16T05:05:16.100Z,2.90
2019-01-16T05:08:15.927Z,4.00
2019-01-16T05:10:56.635Z,3.10
2019-01-16T05:13:49.802Z,2.27
2019-01-16T05:16:31.691Z,2.33
2019-01-16T05:19:26.211Z,2.63
2019-01-16T05:22:06.866Z,2.67
2019-01-16T05:24:44.885Z,2.43
2019-01-16T05:27:48.671Z,2.80
2019-01-16T05:30:39.364Z,2.70
2019-01-16T05:33:30.684Z,3.23
2019-01-16T05:36:18.674Z,3.13
2019-01-16T05:39:15.525Z,3.53
2019-01-16T05:42:06.161Z,3.30
2019-01-16T05:44:52.972Z,3.20
2019-01-16T05:47:50.188Z,2.67
2019-01-16T05:50:30.015Z,3.23
2019-01-16T05:53:29.293Z,3.43
2019-01-16T05:56:15.743Z,3.40
2019-01-16T05:59:08.662Z,2.50
2019-01-16T06:02:05.973Z,4.10
2019-01-16T06:05:00.010Z,3.03
2019-01-16T06:07:36.877Z,4.70
2019-01-16T06:10:42.213Z,2.50
2019-01-16T06:13:39.395Z,3.10
2019-01-16T06:16:14.482Z,2.73
2019-01-16T06:19:17.729Z,3.00
2019-01-16T06:22:21.097Z,3.00
2019-01-16T06:25:14.911Z,2.77
2019-01-16T06:27:59.428Z,2.80
2019-01-16T06:30:44.398Z,4.50
2019-01-16T06:33:32.457Z,3.10
2019-01-16T06:36:19.339Z,3.40
2019-01-16T06:39:16.556Z,2.47
2019-01-16T06:42:04.597Z,3.30
2019-01-16T06:45:01.965Z,2.60
2019-01-16T06:47:48.590Z,2.83
2019-01-16T06:50:36.669Z,3.77
2019-01-16T06:53:16.397Z,3.30
2019-01-16T06:56:05.376Z,2.80
2019-01-16T06:58:53.314Z,3.40
2019-01-16T07:01:43.982Z,3.17
2019-01-16T07:04:40.877Z,3.67
2019-01-16T07:07:25.307Z,3.60
2019-01-16T07:10:01.879Z,3.47
2019-01-16T07:12:55.624Z,3.87
2019-01-16T07:15:39.893Z,3.30
2019-01-16T07:18:31.021Z,4.30
2019-01-16T07:21:09.032Z,4.03
2019-01-16T07:23:55.673Z,3.80
2019-01-16T07:26:46.657Z,3.07
2019-01-16T07:29:33.574Z,3.13
2019-01-16T07:32:25.275Z,3.83
2019-01-16T07:35:08.717Z,4.13
2019-01-16T07:37:48.278Z,3.20
2019-01-16T07:40:35.113Z,2.40
2019-01-16T07:43:26.121Z,3.30
2019-01-16T07:46:15.959Z,3.67
2019-01-16T07:49:03.048Z,2.90
2019-01-16T07:51:39.437Z,3.20
2019-01-16T07:54:27.348Z,3.23
2019-01-16T07:57:24.755Z,3.37
2019-01-16T08:00:18.513Z,3.37
2019-01-16T08:03:05.208Z,4.17
2019-01-16T08:05:52.160Z,4.37
2019-01-16T08:08:43.184Z,3.47
2019-01-16T08:11:37.940Z,3.93
2019-01-16T08:14:24.617Z,3.90
2019-01-16T08:17:06.133Z,4.20
2019-01-16T08:19:53.194Z,3.63
2019-01-16T08:22:31.999Z,3.40
2019-01-16T08:25:22.229Z,3.00
2019-01-16T08:28:19.736Z,4.03
2019-01-16T08:30:55.932Z,3.90
2019-01-16T08:33:43.190Z,3.73
2019-01-16T08:36:37.108Z,3.47
2019-01-16T08:39:27.760Z,3.63
2019-01-16T08:42:14.339Z,3.43
2019-01-16T08:44:52.563Z,3.50
2019-01-16T08:47:39.889Z,3.13
2019-01-16T08:50:32.722Z,2.60
2019-01-16T08:53:12.405Z,3.30
2019-01-16T08:55:54.586Z,2.50
2019-01-16T08:58:36.224Z,2.60
2019-01-16T09:01:23.365Z,2.87
2019-01-16T09:04:20.773Z,2.70
2019-01-16T09:07:20.571Z,3.10
2019-01-16T09:10:06.976Z,2.73
2019-01-16T09:13:01.073Z,3.10
2019-01-16T09:15:58.296Z,3.40
2019-01-16T09:18:46.228Z,2.80
2019-01-16T09:21:32.715Z,2.33
2019-01-16T09:24:19.125Z,2.53
2019-01-16T09:27:13.429Z,2.80
2019-01-16T09:30:07.184Z,2.67
2019-01-16T09:32:58.118Z,2.93
2019-01-16T09:35:53.528Z,2.73
2019-01-16T09:38:37.803Z,2.67
2019-01-16T09:41:25.122Z,3.10
2019-01-16T09:44:31.289Z,3.50
2019-01-16T09:47:22.376Z,2.60
2019-01-16T09:50:08.920Z,2.70
2019-01-16T09:52:56.040Z,2.30
2019-01-16T09:55:47.317Z,3.03
2019-01-16T09:58:42.048Z,2.70
2019-01-16T10:01:45.148Z,2.67
2019-01-16T10:04:32.013Z,3.27
2019-01-16T10:07:18.871Z,3.53
2019-01-16T10:10:06.830Z,2.90
2019-01-16T10:12:48.957Z,3.53
2019-01-16T10:15:32.199Z,3.57
2019-01-16T10:18:12.961Z,2.67
2019-01-16T10:21:04.306Z,3.57
2019-01-16T10:24:05.365Z,4.20
2019-01-16T10:26:51.861Z,4.10
2019-01-16T10:29:42.915Z,4.37
2019-01-16T10:32:31.305Z,3.57
2019-01-16T10:35:37.509Z,4.47
2019-01-16T10:38:37.435Z,3.87
2019-01-16T10:41:36.921Z,3.67
2019-01-16T10:44:28.117Z,3.83
2019-01-16T10:47:16.091Z,4.77
2019-01-16T10:50:22.552Z,4.10
2019-01-16T10:53:09.302Z,4.60
2019-01-16T10:55:55.699Z,3.90
2019-01-16T10:58:55.808Z,5.07
2019-01-16T11:01:43.829Z,4.83
2019-01-16T11:04:30.697Z,4.30
2019-01-16T11:07:31.101Z,4.40
2019-01-16T11:10:17.956Z,3.50
2019-01-16T11:13:07.409Z,4.00
2019-01-16T11:16:04.660Z,3.50
2019-01-16T11:18:55.283Z,4.63
2019-01-16T11:21:37.833Z,4.47
2019-01-16T11:24:35.001Z,4.40
2019-01-16T11:27:19.396Z,4.10
2019-01-16T11:30:06.113Z,3.90
2019-01-16T11:33:00.405Z,3.37
2019-01-16T11:35:52.554Z,4.17
2019-01-16T11:38:39.145Z,3.80
2019-01-16T11:41:25.921Z,3.50
2019-01-16T11:44:04.363Z,3.80
2019-01-16T11:46:55.089Z,3.17
2019-01-16T11:49:45.812Z,3.20
2019-01-16T11:52:44.566Z,4.10
2019-01-16T11:55:36.985Z,3.50
2019-01-16T11:58:24.002Z,3.77
2019-01-16T12:01:28.544Z,4.07
2019-01-16T12:04:25.796Z,5.20
2019-01-16T12:07:16.489Z,3.30
2019-01-16T12:10:03.453Z,3.93
2019-01-16T12:13:03.792Z,4.23
2019-01-16T12:15:58.029Z,3.63
2019-01-16T12:18:40.523Z,3.80
2019-01-16T12:21:26.325Z,4.77
2019-01-16T12:24:11.672Z,3.00
2019-01-16T12:26:58.621Z,3.80
2019-01-16T12:30:02.014Z,3.83
2019-01-16T12:32:52.827Z,3.93
2019-01-16T12:35:38.726Z,3.57
2019-01-16T12:38:42.115Z,3.70
2019-01-16T12:41:32.912Z,4.03
2019-01-16T12:44:13.581Z,3.03
2019-01-16T12:47:04.403Z,3.53
2019-01-16T12:49:45.322Z,3.33
2019-01-16T12:52:54.290Z,3.77
2019-01-16T12:55:40.245Z,3.40
2019-01-16T12:58:28.331Z,3.87
2019-01-16T13:01:09.075Z,4.27
2019-01-16T13:04:12.368Z,3.83
2019-01-16T13:07:00.506Z,4.30
2019-01-16T13:09:54.993Z,3.87
2019-01-16T13:12:41.674Z,3.30
2019-01-16T13:15:29.624Z,3.13
2019-01-16T13:18:16.901Z,3.30
2019-01-16T13:21:02.642Z,4.13
2019-01-16T13:23:59.571Z,2.63
2019-01-16T13:26:38.611Z,2.57
2019-01-16T13:29:28.125Z,3.10
2019-01-16T13:32:28.191Z,3.07
2019-01-16T13:35:15.161Z,2.97
2019-01-16T13:38:07.780Z,2.90
2019-01-16T13:40:54.342Z,3.83
2019-01-16T13:43:45.513Z,3.07
2019-01-16T13:46:51.645Z,3.10
2019-01-16T13:49:39.018Z,3.77
2019-01-16T13:52:26.315Z,3.20
2019-01-16T13:55:17.040Z,3.00
2019-01-16T13:58:05.468Z,3.13
2019-01-16T14:00:57.198Z,3.13
2019-01-16T14:03:40.523Z,2.90
2019-01-16T14:06:30.291Z,4.17
2019-01-16T14:09:15.780Z,2.20
2019-01-16T14:12:16.200Z,3.60
2019-01-16T14:15:02.882Z,3.03
2019-01-16T14:17:52.495Z,2.93
2019-01-16T14:20:33.357Z,3.00
2019-01-16T14:23:33.357Z,2.90
2019-01-16T14:26:10.054Z,2.50
2019-01-16T14:28:52.065Z,3.67
2019-01-16T14:31:32.020Z,4.13
2019-01-16T14:34:35.402Z,2.63
2019-01-16T14:37:22.564Z,3.00
2019-01-16T14:40:13.240Z,2.53
2019-01-16T14:43:19.825Z,3.50
2019-01-16T14:46:06.379Z,2.90
2019-01-16T14:48:56.754Z,3.73
2019-01-16T14:51:47.557Z,3.27
2019-01-16T14:54:41.310Z,3.30
2019-01-16T14:57:21.840Z,3.03
2019-01-16T15:00:02.516Z,3.23
2019-01-16T15:03:02.400Z,3.20
2019-01-16T15:05:49.579Z,2.93
2019-01-16T15:08:39.533Z,3.00
2019-01-16T15:11:14.864Z,2.90
2019-01-16T15:14:01.628Z,3.33
2019-01-16T15:16:42.138Z,4.50
2019-01-16T15:19:32.979Z,2.50
2019-01-16T15:22:24.073Z,2.43
2019-01-16T15:25:21.212Z,3.13
2019-01-16T15:28:14.370Z,3.50
2019-01-16T15:30:59.447Z,3.00
2019-01-16T15:33:46.351Z,3.97
2019-01-16T15:36:26.518Z,3.00
2019-01-16T15:39:04.015Z,3.07
2019-01-16T15:41:57.975Z,3.27
2019-01-16T15:44:59.552Z,4.80
2019-01-16T15:47:47.514Z,3.17
2019-01-16T15:50:35.538Z,3.37
2019-01-16T15:53:39.325Z,3.43
2019-01-16T15:56:39.844Z,3.10
2019-01-16T15:59:20.669Z,2.43
2019-01-16T16:02:08.876Z,2.77
2019-01-16T16:04:48.624Z,3.50
2019-01-16T16:07:42.806Z,3.27
2019-01-16T16:10:29.682Z,2.93
2019-01-16T16:13:16.443Z,3.13
2019-01-16T16:16:00.158Z,3.03
2019-01-16T16:18:50.328Z,4.07
2019-01-16T16:21:38.369Z,3.30
2019-01-16T16:24:25.280Z,3.90
2019-01-16T16:27:19.453Z,3.23
2019-01-16T16:30:26.094Z,2.83
2019-01-16T16:33:23.040Z,4.77
2019-01-16T16:36:14.318Z,2.77
2019-01-16T16:39:11.564Z,3.43
2019-01-16T16:42:11.927Z,3.23
2019-01-16T16:45:18.045Z,3.10
2019-01-16T16:48:07.810Z,3.20
2019-01-16T16:51:01.967Z,3.47
2019-01-16T16:53:49.841Z,3.17
2019-01-16T16:56:33.711Z,3.47
2019-01-16T16:59:30.025Z,3.00
2019-01-16T17:02:17.027Z,4.23
2019-01-16T17:04:56.900Z,3.47
2019-01-16T17:07:54.018Z,3.13
2019-01-16T17:10:48.553Z,3.20
2019-01-16T17:13:29.526Z,3.50
2019-01-16T17:16:20.409Z,7.23
2019-01-16T17:19:08.066Z,7.13
2019-01-16T17:22:14.547Z,3.57
2019-01-16T17:24:51.792Z,3.47
2019-01-16T17:27:45.759Z,5.10
2019-01-16T17:30:29.739Z,4.17
2019-01-16T17:33:05.897Z,4.83
2019-01-16T17:35:57.742Z,5.30
2019-01-16T17:38:37.980Z,2.90
2019-01-16T17:41:28.793Z,3.83
2019-01-16T17:44:21.860Z,4.97
2019-01-16T17:47:28.286Z,3.90
2019-01-16T17:50:16.319Z,3.07
2019-01-16T17:53:03.498Z,3.67
2019-01-16T17:55:51.415Z,3.60
2019-01-16T17:58:31.160Z,4.33
2019-01-16T18:01:10.420Z,3.87
2019-01-16T18:04:04.905Z,3.70
2019-01-16T18:07:02.656Z,4.67
2019-01-16T18:09:42.604Z,4.07
2019-01-16T18:12:43.103Z,4.43
2019-01-16T18:15:34.195Z,5.20
2019-01-16T18:18:19.421Z,4.73
2019-01-16T18:21:16.736Z,4.80
2019-01-16T18:24:03.389Z,4.20
2019-01-16T18:26:56.025Z,5.10
2019-01-16T18:29:35.258Z,5.00
2019-01-16T18:32:30.766Z,4.50
2019-01-16T18:35:27.822Z,5.10
2019-01-16T18:38:09.210Z,5.00
2019-01-16T18:41:00.296Z,3.80
2019-01-16T18:43:46.537Z,3.90
2019-01-16T18:46:40.566Z,2.90
2019-01-16T18:49:31.360Z,3.87
2019-01-16T18:52:18.383Z,3.00
2019-01-16T18:55:06.253Z,3.20
2019-01-16T18:57:54.231Z,3.90
2019-01-16T19:00:48.473Z,3.53
2019-01-16T19:03:34.800Z,3.73
2019-01-16T19:06:32.091Z,3.50
2019-01-16T19:09:18.785Z,5.13
2019-01-16T19:12:06.884Z,5.57
2019-01-16T19:14:54.962Z,4.53
2019-01-16T19:17:41.890Z,7.77
2019-01-16T19:20:26.196Z,6.03
2019-01-16T19:23:03.856Z,4.23
2019-01-16T19:25:39.418Z,4.27
2019-01-16T19:28:33.068Z,4.50
2019-01-16T19:31:19.981Z,5.30
2019-01-16T19:34:07.756Z,3.93
2019-01-16T19:36:46.670Z,3.60
2019-01-16T19:39:33.752Z,4.10
2019-01-16T19:42:16.047Z,3.17
2019-01-16T19:45:02.827Z,3.47
2019-01-16T19:47:49.515Z,3.43
2019-01-16T19:50:40.728Z,4.60
2019-01-16T19:53:17.910Z,4.10
2019-01-16T19:56:12.320Z,3.70
2019-01-16T19:58:54.585Z,3.97
2019-01-16T20:01:41.547Z,4.67
2019-01-16T20:04:29.479Z,3.97
2019-01-16T20:07:21.274Z,3.77
2019-01-16T20:10:13.810Z,4.60
2019-01-16T20:13:01.383Z,4.60
2019-01-16T20:15:50.024Z,4.93
2019-01-16T20:18:47.355Z,4.50
2019-01-16T20:21:27.715Z,5.40
2019-01-16T20:24:09.737Z,4.60
2019-01-16T20:26:54.478Z,5.00
2019-01-16T20:29:57.761Z,5.53
2019-01-16T20:32:40.068Z,5.17
2019-01-16T20:35:27.192Z,4.47
2019-01-16T20:38:15.258Z,4.93
2019-01-16T20:41:16.422Z,5.87
2019-01-16T20:43:58.961Z,5.20
2019-01-16T20:46:45.933Z,5.30
2019-01-16T20:49:32.741Z,5.00
2019-01-16T20:52:23.816Z,4.93
2019-01-16T20:55:10.565Z,4.50
2019-01-16T20:57:50.077Z,5.60
2019-01-16T21:00:37.916Z,7.20
2019-01-16T21:03:35.372Z,6.50
2019-01-16T21:06:36.014Z,4.93
2019-01-16T21:09:25.963Z,5.33
2019-01-16T21:12:23.237Z,4.20
2019-01-16T21:15:03.521Z,5.23
2019-01-16T21:17:51.404Z,5.13
2019-01-16T21:20:39.693Z,4.33
2019-01-16T21:23:30.504Z,6.13
2019-01-16T21:26:11.164Z,7.13
2019-01-16T21:29:01.930Z,7.10
2019-01-16T21:31:58.966Z,4.87
2019-01-16T21:34:39.884Z,6.03
2019-01-16T21:37:28.137Z,4.97
2019-01-16T21:40:15.032Z,5.27
2019-01-16T21:43:15.302Z,5.30
2019-01-16T21:46:12.304Z,4.47
2019-01-16T21:49:15.363Z,5.33
2019-01-16T21:52:06.432Z,5.43
2019-01-16T21:55:00.208Z,5.20
2019-01-16T21:57:51.176Z,5.23
2019-01-16T22:00:30.934Z,5.50
2019-01-16T22:03:08.464Z,4.77
2019-01-16T22:05:55.154Z,4.43
2019-01-16T22:08:52.431Z,4.57
2019-01-16T22:11:37.670Z,3.53
2019-01-16T22:14:24.573Z,5.20
2019-01-16T22:17:06.883Z,4.90
2019-01-16T22:20:06.845Z,3.83
2019-01-16T22:22:48.639Z,5.80
2019-01-16T22:25:42.453Z,5.43
2019-01-16T22:28:26.638Z,4.60
2019-01-16T22:31:21.109Z,6.23
2019-01-16T22:34:11.428Z,8.57
2019-01-16T22:37:09.101Z,7.40
2019-01-16T22:39:55.761Z,5.20
2019-01-16T22:42:42.915Z,4.30
2019-01-16T22:45:30.364Z,4.43
2019-01-16T22:48:09.762Z,4.73
2019-01-16T22:51:00.926Z,4.70
2019-01-16T22:53:54.834Z,5.03
2019-01-16T22:56:47.804Z,5.00
2019-01-16T22:59:32.894Z,5.70
2019-01-16T23:02:17.865Z,6.57
2019-01-16T23:05:08.903Z,5.07
2019-01-16T23:07:48.489Z,4.57
2019-01-16T23:10:29.180Z,4.13
2019-01-16T23:13:15.135Z,4.90
2019-01-16T23:16:01.690Z,4.30
2019-01-16T23:18:49.572Z,4.80
2019-01-16T23:21:30.813Z,4.33
2019-01-16T23:24:17.537Z,4.87
2019-01-16T23:26:53.885Z,4.30
2019-01-16T23:29:32.361Z,3.30
2019-01-16T23:32:35.361Z,3.30
2019-01-16T23:35:36.145Z,3.10
2019-01-16T23:38:26.895Z,3.20
2019-01-16T23:41:03.780Z,4.03
2019-01-16T23:43:45.067Z,5.40
2019-01-16T23:46:33.199Z,5.00
2019-01-16T23:49:13.678Z,3.90
2019-01-16T23:51:52.700Z,3.53
2019-01-16T23:54:43.764Z,3.63
2019-01-16T23:57:30.734Z,3.60
